Time;durP1;ratioP1;P1;durP2;ratioP2;P2;SDS_P1;SDS_P2;PMS_P1;PMS_P2;Temp;Humidity;BMP_temperature;BMP_pressure;BME280_temperature;BME280_humidity;BME280_pressure;Samples;Min_cycle;Max_cycle;Signal;HPM_P1;HPM_P2
2022/07/20 00:01:33;;;;;;;;;;;29.90;39.60;;;;;;5047478;28;19995;-63
2022/07/20 00:03:58;;;;;;;;;;;29.90;39.40;;;;;;5047771;28;19913;-63
2022/07/20 00:06:24;;;;;;;;;;;29.80;39.70;;;;;;5044978;28;19917;-63
2022/07/20 00:11:34;;;;;;;;;;;29.90;39.50;;;;;;5050832;28;19974;-63
2022/07/20 00:14:00;;;;;;;;;;;29.80;39.60;;;;;;5051887;28;20442;-63
2022/07/20 00:16:26;;;;;;;;;;;29.80;39.60;;;;;;5050826;28;19917;-63
2022/07/20 00:18:51;;;;;;;;;;;29.80;39.60;;;;;;5051443;28;19921;-63
2022/07/20 00:21:17;;;;;;;;;;;29.80;39.50;;;;;;5049345;28;19913;-63
2022/07/20 00:23:42;;;;;;;;;;;29.80;39.60;;;;;;5045209;28;19935;-63
2022/07/20 00:26:08;;;;;;;;;;;29.80;39.70;;;;;;5048079;28;19920;-63
2022/07/20 00:28:33;;;;;;;;;;;29.80;39.90;;;;;;5048141;28;20011;-63
2022/07/20 00:30:59;;;;;;;;;;;29.80;39.90;;;;;;5052031;28;20269;-63
2022/07/20 00:33:24;;;;;;;;;;;29.70;39.70;;;;;;5048702;28;19939;-63
2022/07/20 00:35:50;;;;;;;;;;;29.70;40.00;;;;;;5063134;28;19947;-63
2022/07/20 00:38:15;;;;;;;;;;;29.70;39.70;;;;;;5041205;28;20155;-63
2022/07/20 00:40:41;;;;;;;;;;;29.70;39.70;;;;;;5048804;28;20514;-63
2022/07/20 00:43:06;;;;;;;;;;;29.70;39.50;;;;;;5051483;28;19916;-63
2022/07/20 00:45:32;;;;;;;;;;;29.70;39.90;;;;;;5047615;28;19922;-63
2022/07/20 00:47:57;;;;;;;;;;;29.70;39.80;;;;;;5063994;28;20288;-63
2022/07/20 00:50:23;;;;;;;;;;;29.70;39.60;;;;;;5049747;28;19912;-63
2022/07/20 00:52:48;;;;;;;;;;;29.70;39.70;;;;;;5049055;28;19917;-63
2022/07/20 00:55:14;;;;;;;;;;;29.70;39.70;;;;;;5033298;28;19920;-63
2022/07/20 00:57:39;;;;;;;;;;;29.70;39.90;;;;;;5047807;28;19923;-63
2022/07/20 01:00:06;;;;;;;;;;;29.70;39.90;;;;;;5046455;28;19967;-63
2022/07/20 01:02:32;;;;;;;;;;;29.70;39.70;;;;;;5045209;28;19913;-63
2022/07/20 01:04:57;;;;;;;;;;;29.70;39.50;;;;;;5039149;28;19916;-63
2022/07/20 01:07:23;;;;;;;;;;;29.70;39.70;;;;;;5046389;28;19919;-63
2022/07/20 01:09:48;;;;;;;;;;;29.60;39.70;;;;;;5047289;28;19971;-63
2022/07/20 01:12:14;;;;;;;;;;;29.60;39.80;;;;;;5038136;28;19978;-63
2022/07/20 01:14:39;;;;;;;;;;;29.60;39.60;;;;;;5049544;28;19913;-63
2022/07/20 01:17:04;;;;;;;;;;;29.60;39.50;;;;;;5047866;28;20322;-63
2022/07/20 01:19:30;;;;;;;;;;;29.60;39.40;;;;;;5047190;28;19917;-63
2022/07/20 01:21:55;;;;;;;;;;;29.60;39.50;;;;;;5051411;28;19909;-63
2022/07/20 01:24:21;;;;;;;;;;;29.60;39.30;;;;;;5046957;28;19962;-63
2022/07/20 01:26:46;;;;;;;;;;;29.60;39.30;;;;;;5050825;28;19919;-63
2022/07/20 01:29:12;;;;;;;;;;;29.70;39.40;;;;;;5049420;28;19912;-63
2022/07/20 01:31:38;;;;;;;;;;;29.70;39.30;;;;;;5030925;28;19913;-63
2022/07/20 01:34:03;;;;;;;;;;;29.60;39.30;;;;;;5049117;28;20093;-63
2022/07/20 01:36:29;;;;;;;;;;;29.60;39.20;;;;;;5049451;28;19916;-63
2022/07/20 01:38:54;;;;;;;;;;;29.60;38.90;;;;;;5047317;28;19916;-63
2022/07/20 01:41:20;;;;;;;;;;;29.70;39.00;;;;;;5048847;28;20402;-63
2022/07/20 01:43:45;;;;;;;;;;;29.60;39.30;;;;;;5045686;28;19913;-63
2022/07/20 01:46:11;;;;;;;;;;;29.60;39.20;;;;;;5048915;28;20292;-63
2022/07/20 01:48:36;;;;;;;;;;;29.60;39.30;;;;;;5049880;28;20287;-63
2022/07/20 01:51:02;;;;;;;;;;;29.60;39.20;;;;;;5026911;28;19917;-63
2022/07/20 01:53:27;;;;;;;;;;;29.60;39.40;;;;;;5030898;28;19913;-63
2022/07/20 01:55:52;;;;;;;;;;;29.60;39.00;;;;;;5065495;28;19913;-63
2022/07/20 01:58:18;;;;;;;;;;;29.60;39.10;;;;;;5046428;28;19928;-63
2022/07/20 02:00:43;;;;;;;;;;;29.60;39.50;;;;;;5025914;28;19924;-63
2022/07/20 02:03:09;;;;;;;;;;;29.60;39.40;;;;;;5047598;28;19916;-63
2022/07/20 02:05:34;;;;;;;;;;;29.60;39.30;;;;;;5048967;28;19913;-62
2022/07/20 02:08:00;;;;;;;;;;;29.50;39.30;;;;;;5048640;28;19958;-63
2022/07/20 02:10:25;;;;;;;;;;;29.50;39.10;;;;;;5032071;28;20016;-63
2022/07/20 02:12:51;;;;;;;;;;;29.50;39.30;;;;;;5046387;28;19974;-62
2022/07/20 02:18:06;;;;;;;;;;;29.50;39.50;;;;;;5031666;28;19915;-63
2022/07/20 02:20:32;;;;;;;;;;;29.50;39.00;;;;;;5062154;28;19974;-63
2022/07/20 02:22:58;;;;;;;;;;;29.50;39.30;;;;;;5050783;28;20361;-63
2022/07/20 02:25:23;;;;;;;;;;;29.50;39.40;;;;;;5048125;28;19917;-63
2022/07/20 02:27:49;;;;;;;;;;;29.50;39.20;;;;;;5030531;28;19913;-63
2022/07/20 02:30:14;;;;;;;;;;;29.50;39.00;;;;;;5035023;28;19952;-63
2022/07/20 02:32:40;;;;;;;;;;;29.50;39.30;;;;;;5043805;28;19913;-63
2022/07/20 02:35:05;;;;;;;;;;;29.40;39.30;;;;;;5033830;28;19913;-63
2022/07/20 02:37:31;;;;;;;;;;;29.40;39.30;;;;;;5052589;28;19924;-63
2022/07/20 02:39:56;;;;;;;;;;;29.40;38.70;;;;;;5049503;28;20000;-62
2022/07/20 02:42:22;;;;;;;;;;;29.40;39.30;;;;;;5040636;28;19931;-63
2022/07/20 02:44:47;;;;;;;;;;;29.40;39.10;;;;;;5051484;28;19913;-63
2022/07/20 02:47:13;;;;;;;;;;;29.40;39.30;;;;;;5053728;28;19999;-63
2022/07/20 02:49:38;;;;;;;;;;;29.40;39.30;;;;;;5036146;28;19916;-62
2022/07/20 02:52:03;;;;;;;;;;;29.40;39.30;;;;;;5052617;28;19921;-63
2022/07/20 02:54:29;;;;;;;;;;;29.40;39.10;;;;;;5053108;28;19917;-63
2022/07/20 02:56:54;;;;;;;;;;;29.40;38.90;;;;;;5051666;28;20293;-63
2022/07/20 02:59:20;;;;;;;;;;;29.50;39.30;;;;;;5049806;28;19917;-63
2022/07/20 03:01:45;;;;;;;;;;;29.40;39.10;;;;;;5044978;28;19913;-63
2022/07/20 03:04:11;;;;;;;;;;;29.50;38.90;;;;;;5034017;28;19959;-63
2022/07/20 03:06:37;;;;;;;;;;;29.40;39.40;;;;;;5031874;28;19913;-63
2022/07/20 03:09:02;;;;;;;;;;;29.40;39.10;;;;;;5029148;28;19913;-63
2022/07/20 03:11:28;;;;;;;;;;;29.40;39.60;;;;;;5052545;28;19917;-63
2022/07/20 03:13:53;;;;;;;;;;;29.40;39.40;;;;;;5054381;28;20384;-63
2022/07/20 03:16:18;;;;;;;;;;;29.40;39.00;;;;;;5048042;28;19917;-63
2022/07/20 03:18:44;;;;;;;;;;;29.40;39.00;;;;;;5042852;28;20004;-63
2022/07/20 03:21:09;;;;;;;;;;;29.40;39.50;;;;;;5035830;28;19913;-63
2022/07/20 03:23:35;;;;;;;;;;;29.40;39.10;;;;;;5050840;28;20373;-62
2022/07/20 03:26:00;;;;;;;;;;;29.40;39.30;;;;;;5049244;28;20294;-63
2022/07/20 03:28:26;;;;;;;;;;;29.40;38.90;;;;;;5050560;28;20361;-63
2022/07/20 03:30:51;;;;;;;;;;;29.40;39.10;;;;;;5048848;28;19922;-62
2022/07/20 03:33:16;;;;;;;;;;;29.40;39.10;;;;;;5048704;28;19940;-63
2022/07/20 03:35:42;;;;;;;;;;;29.40;39.00;;;;;;5051386;28;19935;-63
2022/07/20 03:38:07;;;;;;;;;;;29.40;39.20;;;;;;5049844;28;19989;-63
2022/07/20 03:40:33;;;;;;;;;;;29.40;39.40;;;;;;5051738;28;20304;-63
2022/07/20 03:42:58;;;;;;;;;;;29.40;39.30;;;;;;5048798;28;20343;-63
2022/07/20 03:45:24;;;;;;;;;;;29.40;39.40;;;;;;5050297;28;19917;-63
2022/07/20 03:47:49;;;;;;;;;;;29.40;39.20;;;;;;5049341;28;19913;-63
2022/07/20 03:50:15;;;;;;;;;;;29.40;39.30;;;;;;5053928;28;19909;-63
2022/07/20 03:52:40;;;;;;;;;;;29.40;39.70;;;;;;5052921;28;19935;-63
2022/07/20 03:55:06;;;;;;;;;;;29.40;39.60;;;;;;5040651;28;19909;-63
2022/07/20 03:57:31;;;;;;;;;;;29.40;39.30;;;;;;5049520;28;19970;-62
2022/07/20 03:59:57;;;;;;;;;;;29.40;39.70;;;;;;5050891;28;19963;-63
2022/07/20 04:02:22;;;;;;;;;;;29.30;39.60;;;;;;5052247;28;19909;-63
2022/07/20 04:04:48;;;;;;;;;;;29.30;39.60;;;;;;5048891;28;19996;-63
2022/07/20 04:07:13;;;;;;;;;;;29.30;39.70;;;;;;5032657;28;20289;-63
2022/07/20 04:09:45;;;;;;;;;;;29.30;39.50;;;;;;5050201;28;19921;-63
2022/07/20 04:12:11;;;;;;;;;;;29.30;39.70;;;;;;5031159;28;19921;-63
2022/07/20 04:14:36;;;;;;;;;;;29.30;39.50;;;;;;5049583;28;20019;-63
2022/07/20 04:17:02;;;;;;;;;;;29.30;40.10;;;;;;5051978;28;19944;-63
2022/07/20 04:19:27;;;;;;;;;;;29.30;39.80;;;;;;5051982;28;19913;-63
2022/07/20 04:21:54;;;;;;;;;;;29.30;39.90;;;;;;5052249;28;19909;-63
2022/07/20 04:24:19;;;;;;;;;;;29.30;39.70;;;;;;5034504;28;19923;-63
2022/07/20 04:26:45;;;;;;;;;;;29.30;39.80;;;;;;5051483;28;19909;-62
2022/07/20 04:29:10;;;;;;;;;;;29.20;40.40;;;;;;5053140;28;19944;-62
2022/07/20 04:31:36;;;;;;;;;;;29.20;39.70;;;;;;5048400;28;19909;-63
2022/07/20 04:34:01;;;;;;;;;;;29.30;39.60;;;;;;5043253;28;19936;-63
2022/07/20 04:36:26;;;;;;;;;;;29.20;40.00;;;;;;5053066;28;19916;-63
2022/07/20 04:38:52;;;;;;;;;;;29.30;39.60;;;;;;5034067;28;19959;-63
2022/07/20 04:41:17;;;;;;;;;;;29.20;40.10;;;;;;5051512;28;20383;-62
2022/07/20 04:43:43;;;;;;;;;;;29.20;39.60;;;;;;5051372;28;20535;-62
2022/07/20 04:46:08;;;;;;;;;;;29.20;39.60;;;;;;5051181;28;20308;-63
2022/07/20 04:48:34;;;;;;;;;;;29.20;39.70;;;;;;5050763;28;19961;-63
2022/07/20 04:50:59;;;;;;;;;;;29.20;39.70;;;;;;5052059;28;19917;-63
2022/07/20 04:53:25;;;;;;;;;;;29.20;40.30;;;;;;5044515;28;19913;-62
2022/07/20 04:55:50;;;;;;;;;;;29.20;39.70;;;;;;5036539;28;19913;-63
2022/07/20 04:58:15;;;;;;;;;;;29.20;39.90;;;;;;5048645;28;19924;-63
2022/07/20 05:00:41;;;;;;;;;;;29.20;40.50;;;;;;5029841;28;19928;-63
2022/07/20 05:03:06;;;;;;;;;;;29.20;39.80;;;;;;5042395;28;19913;-62
2022/07/20 05:05:32;;;;;;;;;;;29.20;39.70;;;;;;5051184;28;19916;-63
2022/07/20 05:07:57;;;;;;;;;;;29.20;39.80;;;;;;5031539;28;19928;-63
2022/07/20 05:10:23;;;;;;;;;;;29.20;39.80;;;;;;5029323;28;20336;-63
2022/07/20 05:12:48;;;;;;;;;;;29.20;39.80;;;;;;5024867;28;20278;-63
2022/07/20 05:15:13;;;;;;;;;;;29.10;39.70;;;;;;5022112;28;19917;-63
2022/07/20 05:17:39;;;;;;;;;;;29.10;40.20;;;;;;5054395;28;19959;-62
2022/07/20 05:20:05;;;;;;;;;;;29.10;39.90;;;;;;5046944;28;19921;-63
2022/07/20 05:22:30;;;;;;;;;;;29.10;39.90;;;;;;5049949;28;20004;-63
2022/07/20 05:24:55;;;;;;;;;;;29.10;39.90;;;;;;5051137;28;20363;-63
2022/07/20 05:27:21;;;;;;;;;;;29.10;40.00;;;;;;5046055;28;19920;-63
2022/07/20 05:29:48;;;;;;;;;;;29.10;40.10;;;;;;5048638;28;19919;-63
2022/07/20 05:32:13;;;;;;;;;;;29.10;40.20;;;;;;5048907;28;19913;-63
2022/07/20 05:34:39;;;;;;;;;;;29.10;40.10;;;;;;5049826;28;19970;-63
2022/07/20 05:37:04;;;;;;;;;;;29.10;40.00;;;;;;5030246;28;20270;-63
2022/07/20 05:39:30;;;;;;;;;;;29.10;40.00;;;;;;5048831;28;19916;-63
2022/07/20 05:41:55;;;;;;;;;;;29.10;40.20;;;;;;5048821;28;19951;-63
2022/07/20 05:44:20;;;;;;;;;;;29.10;40.10;;;;;;5049329;28;19920;-62
2022/07/20 05:46:46;;;;;;;;;;;29.10;40.20;;;;;;5045548;28;19939;-63
2022/07/20 05:49:11;;;;;;;;;;;29.10;40.20;;;;;;5035309;28;20395;-63
2022/07/20 05:51:37;;;;;;;;;;;29.10;40.20;;;;;;5047853;28;19912;-63
2022/07/20 05:54:02;;;;;;;;;;;29.10;40.20;;;;;;5044257;28;19952;-63
2022/07/20 05:56:28;;;;;;;;;;;29.00;40.10;;;;;;5047536;28;19920;-63
2022/07/20 05:58:53;;;;;;;;;;;29.10;40.20;;;;;;5050704;28;20457;-63
2022/07/20 06:01:19;;;;;;;;;;;29.10;40.20;;;;;;5048732;28;19952;-62
2022/07/20 06:03:44;;;;;;;;;;;29.00;40.10;;;;;;5042719;28;20419;-63
2022/07/20 06:06:10;;;;;;;;;;;29.00;40.10;;;;;;5050093;28;19919;-62
2022/07/20 06:08:37;;;;;;;;;;;29.10;40.20;;;;;;5046734;28;20373;-63
2022/07/20 06:11:03;;;;;;;;;;;29.10;40.20;;;;;;5052422;28;19921;-63
2022/07/20 06:13:28;;;;;;;;;;;29.00;40.10;;;;;;5050242;28;19943;-63
2022/07/20 06:15:54;;;;;;;;;;;29.00;40.10;;;;;;5045594;28;19924;-63
2022/07/20 06:18:19;;;;;;;;;;;29.00;40.30;;;;;;5063869;28;20328;-63
2022/07/20 06:20:44;;;;;;;;;;;29.00;40.30;;;;;;5053420;28;19917;-63
2022/07/20 06:23:10;;;;;;;;;;;29.00;40.20;;;;;;5051298;28;19995;-62
2022/07/20 06:25:35;;;;;;;;;;;28.90;40.30;;;;;;5050948;28;19920;-63
2022/07/20 06:28:01;;;;;;;;;;;28.90;40.50;;;;;;5053488;28;20426;-62
2022/07/20 06:30:26;;;;;;;;;;;29.00;40.30;;;;;;5053690;28;19947;-63
2022/07/20 06:32:52;;;;;;;;;;;29.00;40.40;;;;;;5053728;28;19970;-63
2022/07/20 06:35:17;;;;;;;;;;;29.00;40.40;;;;;;5035827;28;19915;-62
2022/07/20 06:37:43;;;;;;;;;;;29.00;40.20;;;;;;5048939;28;19914;-63
2022/07/20 06:40:08;;;;;;;;;;;29.00;40.10;;;;;;5053679;28;19924;-63
2022/07/20 06:42:34;;;;;;;;;;;29.00;40.10;;;;;;5046765;28;19919;-63
2022/07/20 06:45:00;;;;;;;;;;;29.00;40.40;;;;;;5049169;28;20035;-63
2022/07/20 06:47:25;;;;;;;;;;;29.00;40.10;;;;;;5053271;28;20003;-63
2022/07/20 06:49:51;;;;;;;;;;;29.00;40.10;;;;;;5053768;28;20288;-63
2022/07/20 06:52:17;;;;;;;;;;;29.00;40.10;;;;;;5052780;28;19916;-63
2022/07/20 06:54:42;;;;;;;;;;;29.00;40.10;;;;;;5051820;28;19979;-63
2022/07/20 06:57:08;;;;;;;;;;;29.00;40.10;;;;;;5052608;28;20288;-62
2022/07/20 06:59:33;;;;;;;;;;;29.00;40.10;;;;;;5051640;28;19975;-62
2022/07/20 07:01:59;;;;;;;;;;;28.90;40.10;;;;;;5052984;28;19955;-63
2022/07/20 07:04:24;;;;;;;;;;;28.90;40.30;;;;;;5054437;28;19955;-62
2022/07/20 07:06:50;;;;;;;;;;;29.00;40.20;;;;;;5050715;28;19982;-62
2022/07/20 07:09:15;;;;;;;;;;;28.90;40.20;;;;;;5049947;28;20047;-62
2022/07/20 07:11:41;;;;;;;;;;;28.90;40.40;;;;;;5035420;28;19968;-62
2022/07/20 07:14:06;;;;;;;;;;;28.90;40.30;;;;;;5042301;28;20365;-62
2022/07/20 07:16:32;;;;;;;;;;;28.90;40.30;;;;;;5043357;28;19979;-63
2022/07/20 07:18:57;;;;;;;;;;;28.90;40.70;;;;;;5046119;28;19924;-63
2022/07/20 07:21:23;;;;;;;;;;;28.80;40.90;;;;;;5044121;28;19996;-62
2022/07/20 07:23:51;;;;;;;;;;;28.80;41.00;;;;;;5049450;28;20289;-62
2022/07/20 07:26:17;;;;;;;;;;;28.80;41.00;;;;;;5035680;28;19995;-63
2022/07/20 07:28:43;;;;;;;;;;;28.80;41.10;;;;;;5041055;28;19956;-63
2022/07/20 07:31:09;;;;;;;;;;;28.80;41.00;;;;;;5038236;28;21239;-63
2022/07/20 07:33:34;;;;;;;;;;;28.80;41.10;;;;;;5039787;28;19927;-63
2022/07/20 07:35:59;;;;;;;;;;;28.80;41.50;;;;;;5043592;28;19959;-64
2022/07/20 07:38:25;;;;;;;;;;;28.70;41.60;;;;;;5049657;28;19921;-64
2022/07/20 07:40:50;;;;;;;;;;;28.80;41.70;;;;;;5047852;28;19920;-64
2022/07/20 07:43:16;;;;;;;;;;;28.80;41.80;;;;;;5025635;28;20019;-64
2022/07/20 07:45:41;;;;;;;;;;;28.80;41.70;;;;;;5040102;28;20016;-64
2022/07/20 07:48:10;;;;;;;;;;;28.80;41.70;;;;;;5044101;28;20418;-64
2022/07/20 07:50:36;;;;;;;;;;;28.90;41.70;;;;;;5057421;28;19917;-64
2022/07/20 07:53:01;;;;;;;;;;;28.90;41.60;;;;;;5053100;28;19921;-64
2022/07/20 07:55:27;;;;;;;;;;;28.90;41.70;;;;;;5046191;28;19967;-64
2022/07/20 07:57:52;;;;;;;;;;;28.90;41.70;;;;;;5041274;28;19940;-64
2022/07/20 08:00:18;;;;;;;;;;;28.90;41.80;;;;;;5042751;28;19921;-64
2022/07/20 08:02:43;;;;;;;;;;;28.90;42.00;;;;;;5036906;28;19919;-63
2022/07/20 08:05:08;;;;;;;;;;;29.00;41.90;;;;;;5037490;28;19939;-63
2022/07/20 08:07:36;;;;;;;;;;;28.90;41.60;;;;;;5036478;28;19931;-62
2022/07/20 08:10:03;;;;;;;;;;;29.00;41.60;;;;;;5038945;28;19920;-63
2022/07/20 08:12:28;;;;;;;;;;;29.00;41.80;;;;;;5038133;28;20289;-63
2022/07/20 08:14:54;;;;;;;;;;;29.00;41.80;;;;;;5043491;28;19921;-63
2022/07/20 08:17:19;;;;;;;;;;;29.10;41.80;;;;;;5033163;28;19929;-63
2022/07/20 08:19:45;;;;;;;;;;;29.10;41.70;;;;;;5028853;28;20389;-64
2022/07/20 08:22:10;;;;;;;;;;;29.10;41.50;;;;;;5040767;28;20372;-63
2022/07/20 08:24:35;;;;;;;;;;;29.10;41.60;;;;;;5038915;28;19916;-64
2022/07/20 08:27:01;;;;;;;;;;;29.10;41.50;;;;;;5043230;28;19917;-64
2022/07/20 08:29:26;;;;;;;;;;;29.20;41.50;;;;;;5044467;28;20000;-63
2022/07/20 08:31:52;;;;;;;;;;;29.20;41.30;;;;;;5033821;28;19921;-63
2022/07/20 08:34:17;;;;;;;;;;;29.20;41.30;;;;;;5027476;28;19912;-64
2022/07/20 08:36:43;;;;;;;;;;;29.20;41.50;;;;;;5035560;28;19916;-64
2022/07/20 08:39:08;;;;;;;;;;;29.20;41.50;;;;;;5043886;28;19921;-63
2022/07/20 08:41:33;;;;;;;;;;;29.20;41.50;;;;;;5047161;28;19916;-63
2022/07/20 08:43:59;;;;;;;;;;;29.20;41.60;;;;;;5059928;28;19916;-63
2022/07/20 08:46:24;;;;;;;;;;;29.30;41.50;;;;;;5047697;28;20411;-62
2022/07/20 08:48:51;;;;;;;;;;;29.30;41.50;;;;;;5050938;28;19916;-63
2022/07/20 08:51:16;;;;;;;;;;;29.40;41.50;;;;;;5048410;28;19982;-63
2022/07/20 08:53:42;;;;;;;;;;;29.40;41.50;;;;;;5045024;28;20320;-63
2022/07/20 08:56:07;;;;;;;;;;;29.40;41.40;;;;;;5029869;28;20329;-62
2022/07/20 08:58:33;;;;;;;;;;;29.50;41.50;;;;;;5050498;28;20400;-64
2022/07/20 09:00:58;;;;;;;;;;;29.60;41.60;;;;;;5046915;28;20376;-65
2022/07/20 09:03:23;;;;;;;;;;;29.60;41.60;;;;;;5048478;28;19917;-63
2022/07/20 09:06:00;;;;;;;;;;;29.60;41.50;;;;;;5047224;28;20043;-64
2022/07/20 09:08:26;;;;;;;;;;;29.70;41.70;;;;;;5045392;28;20377;-63
2022/07/20 09:10:51;;;;;;;;;;;29.70;41.50;;;;;;5031805;28;19948;-64
2022/07/20 09:13:21;;;;;;;;;;;29.70;41.60;;;;;;5045612;28;20677;-64
2022/07/20 09:15:48;;;;;;;;;;;29.80;41.50;;;;;;5049441;28;19932;-65
2022/07/20 09:18:19;;;;;;;;;;;29.80;41.50;;;;;;5039778;28;19924;-65
2022/07/20 09:20:45;;;;;;;;;;;29.80;41.60;;;;;;5042207;28;19921;-64
2022/07/20 09:23:11;;;;;;;;;;;29.80;41.60;;;;;;5034216;28;19917;-64
2022/07/20 09:25:37;;;;;;;;;;;29.80;41.60;;;;;;5028393;28;19920;-64
2022/07/20 09:28:02;;;;;;;;;;;29.80;41.70;;;;;;5039992;28;20895;-64
2022/07/20 09:30:28;;;;;;;;;;;29.90;41.60;;;;;;5040126;28;20471;-62
2022/07/20 09:33:00;;;;;;;;;;;29.90;41.70;;;;;;5019639;28;19925;-64
2022/07/20 09:35:27;;;;;;;;;;;29.90;42.30;;;;;;5046326;28;19920;-64
2022/07/20 09:37:54;;;;;;;;;;;29.90;41.70;;;;;;5040845;28;20305;-63
2022/07/20 09:40:19;;;;;;;;;;;29.90;41.80;;;;;;5040560;28;20023;-64
2022/07/20 09:42:46;;;;;;;;;;;30.00;41.90;;;;;;5044145;28;20008;-64
2022/07/20 09:45:22;;;;;;;;;;;30.00;41.80;;;;;;5035182;28;19943;-64
2022/07/20 09:48:06;;;;;;;;;;;30.00;41.80;;;;;;5035797;28;20430;-64
2022/07/20 09:50:33;;;;;;;;;;;30.00;41.80;;;;;;5044369;28;19913;-65
2022/07/20 09:52:58;;;;;;;;;;;30.00;41.70;;;;;;5038296;28;19966;-64
2022/07/20 09:55:24;;;;;;;;;;;30.10;41.90;;;;;;5036210;28;20372;-64
2022/07/20 09:57:50;;;;;;;;;;;30.00;41.80;;;;;;5049191;28;19951;-64
2022/07/20 10:00:15;;;;;;;;;;;30.10;41.90;;;;;;5053504;28;20320;-64
2022/07/20 10:02:41;;;;;;;;;;;30.10;42.00;;;;;;5040393;28;19920;-65
2022/07/20 10:05:07;;;;;;;;;;;30.20;41.80;;;;;;5041764;28;19924;-65
2022/07/20 10:07:32;;;;;;;;;;;30.10;41.90;;;;;;5043260;28;20438;-65
2022/07/20 10:09:58;;;;;;;;;;;30.00;42.10;;;;;;5026038;28;19967;-65
2022/07/20 10:12:23;;;;;;;;;;;29.90;42.30;;;;;;5042730;28;20015;-65
2022/07/20 10:14:49;;;;;;;;;;;29.90;42.60;;;;;;5059175;28;19924;-64
2022/07/20 10:17:15;;;;;;;;;;;29.80;42.80;;;;;;5037836;28;19917;-64
2022/07/20 10:19:41;;;;;;;;;;;29.80;42.90;;;;;;5047564;28;19917;-64
2022/07/20 10:22:07;;;;;;;;;;;29.80;42.90;;;;;;5040956;28;19913;-63
2022/07/20 10:24:34;;;;;;;;;;;29.80;42.90;;;;;;5042046;28;19917;-64
2022/07/20 10:27:03;;;;;;;;;;;29.80;42.90;;;;;;5040308;28;19924;-65
2022/07/20 10:29:41;;;;;;;;;;;29.80;43.00;;;;;;5037681;28;19935;-64
2022/07/20 10:32:09;;;;;;;;;;;29.80;43.10;;;;;;5027454;28;20011;-63
2022/07/20 10:34:41;;;;;;;;;;;29.70;43.10;;;;;;5034012;28;19924;-64
2022/07/20 10:37:19;;;;;;;;;;;29.70;43.20;;;;;;5040154;28;19919;-65
2022/07/20 10:39:48;;;;;;;;;;;29.80;43.20;;;;;;5033974;28;19925;-65
2022/07/20 10:42:34;;;;;;;;;;;29.80;43.10;;;;;;5040566;28;19966;-63
2022/07/20 10:45:15;;;;;;;;;;;29.90;43.00;;;;;;5036670;28;20331;-63
2022/07/20 10:47:48;;;;;;;;;;;29.90;43.00;;;;;;5035185;28;19959;-63
2022/07/20 10:50:16;;;;;;;;;;;29.90;43.00;;;;;;5037147;28;19964;-64
2022/07/20 10:52:42;;;;;;;;;;;29.90;42.90;;;;;;5044992;28;20361;-64
2022/07/20 10:55:07;;;;;;;;;;;29.90;43.00;;;;;;5046367;28;19917;-64
2022/07/20 10:57:33;;;;;;;;;;;29.90;43.10;;;;;;5054254;28;20357;-64
2022/07/20 11:00:03;;;;;;;;;;;29.90;43.10;;;;;;5050519;28;20363;-65
2022/07/20 11:02:31;;;;;;;;;;;29.90;43.20;;;;;;5052020;28;19913;-64
2022/07/20 11:04:56;;;;;;;;;;;29.90;43.10;;;;;;5051919;28;19917;-64
2022/07/20 11:07:32;;;;;;;;;;;30.00;43.10;;;;;;5051210;28;19917;-63
2022/07/20 11:09:58;;;;;;;;;;;30.00;43.00;;;;;;5048101;28;20365;-65
2022/07/20 11:12:27;;;;;;;;;;;30.00;42.90;;;;;;5044172;28;19924;-65
2022/07/20 11:14:53;;;;;;;;;;;30.00;42.60;;;;;;5046771;28;19923;-63
2022/07/20 11:17:19;;;;;;;;;;;30.10;42.50;;;;;;5046620;28;19943;-64
2022/07/20 11:19:45;;;;;;;;;;;30.20;42.40;;;;;;5045498;28;19929;-65
2022/07/20 11:22:10;;;;;;;;;;;30.20;42.30;;;;;;5045283;28;20383;-64
2022/07/20 11:24:36;;;;;;;;;;;30.20;42.20;;;;;;5048415;28;19966;-65
2022/07/20 11:27:14;;;;;;;;;;;30.10;42.20;;;;;;5044118;28;20284;-64
2022/07/20 11:29:49;;;;;;;;;;;30.10;42.30;;;;;;5046624;28;20015;-63
2022/07/20 11:32:15;;;;;;;;;;;30.10;42.30;;;;;;5045310;28;19917;-65
2022/07/20 11:34:45;;;;;;;;;;;30.20;42.10;;;;;;5044773;28;20380;-64
2022/07/20 11:37:10;;;;;;;;;;;30.30;41.60;;;;;;5045208;28;19920;-64
2022/07/20 11:39:36;;;;;;;;;;;30.30;41.40;;;;;;5049269;28;19917;-64
2022/07/20 11:42:03;;;;;;;;;;;30.40;41.20;;;;;;5024331;28;19917;-64
2022/07/20 11:44:28;;;;;;;;;;;30.40;41.00;;;;;;5045352;28;19913;-64
2022/07/20 11:46:54;;;;;;;;;;;30.40;41.00;;;;;;5048698;28;19921;-63
2022/07/20 11:49:20;;;;;;;;;;;30.50;40.90;;;;;;5047424;28;19917;-64
2022/07/20 11:51:52;;;;;;;;;;;30.60;40.40;;;;;;5046725;28;19986;-65
2022/07/20 11:54:25;;;;;;;;;;;30.60;40.30;;;;;;5047684;28;19920;-63
2022/07/20 11:56:51;;;;;;;;;;;30.60;40.10;;;;;;5045610;28;19956;-63
2022/07/20 11:59:16;;;;;;;;;;;30.60;39.70;;;;;;5049550;28;19960;-64
2022/07/20 12:01:42;;;;;;;;;;;30.60;39.70;;;;;;5044558;28;20351;-65
2022/07/20 12:04:08;;;;;;;;;;;30.60;39.50;;;;;;5061737;28;19920;-64
2022/07/20 12:06:35;;;;;;;;;;;30.70;39.40;;;;;;5045843;28;19920;-64
2022/07/20 12:09:05;;;;;;;;;;;30.80;39.50;;;;;;5046232;28;19913;-63
2022/07/20 12:11:30;;;;;;;;;;;30.70;39.50;;;;;;5045277;28;19935;-64
2022/07/20 12:13:56;;;;;;;;;;;30.60;39.60;;;;;;5049039;28;19917;-63
2022/07/20 12:16:21;;;;;;;;;;;30.60;39.60;;;;;;5040655;28;20657;-64
2022/07/20 12:18:51;;;;;;;;;;;30.70;39.50;;;;;;5048482;28;19959;-64
2022/07/20 12:21:17;;;;;;;;;;;30.70;39.20;;;;;;5029315;28;19970;-64
2022/07/20 12:23:45;;;;;;;;;;;30.80;39.00;;;;;;5037527;28;21327;-63
2022/07/20 12:26:25;;;;;;;;;;;30.90;38.40;;;;;;5048976;28;19919;-63
2022/07/20 12:28:50;;;;;;;;;;;31.00;38.00;;;;;;5041158;28;19913;-64
2022/07/20 12:31:17;;;;;;;;;;;31.00;37.20;;;;;;5048052;28;20478;-64
2022/07/20 12:34:02;;;;;;;;;;;31.00;37.10;;;;;;5046526;28;19917;-64
2022/07/20 12:36:31;;;;;;;;;;;31.00;36.90;;;;;;5048294;28;20003;-64
2022/07/20 12:38:56;;;;;;;;;;;31.00;36.40;;;;;;5045653;28;19967;-64
2022/07/20 12:41:22;;;;;;;;;;;31.00;35.80;;;;;;5044750;28;19924;-64
2022/07/20 12:43:47;;;;;;;;;;;31.10;35.60;;;;;;5039936;28;19932;-64
2022/07/20 12:46:13;;;;;;;;;;;31.10;35.40;;;;;;5037771;28;19924;-65
2022/07/20 12:48:40;;;;;;;;;;;31.10;35.10;;;;;;5048888;28;20040;-64
2022/07/20 12:51:06;;;;;;;;;;;31.20;34.80;;;;;;5042509;28;19917;-64
2022/07/20 12:53:32;;;;;;;;;;;31.20;34.10;;;;;;5049677;28;19935;-65
2022/07/20 12:55:57;;;;;;;;;;;31.20;34.30;;;;;;5047693;28;20593;-64
2022/07/20 12:58:23;;;;;;;;;;;31.20;34.60;;;;;;5049544;28;20019;-64
2022/07/20 13:00:48;;;;;;;;;;;31.10;34.60;;;;;;5048310;28;19920;-64
2022/07/20 13:03:14;;;;;;;;;;;31.10;35.10;;;;;;5037702;28;19934;-64
2022/07/20 13:05:40;;;;;;;;;;;31.20;34.20;;;;;;5049768;28;19939;-64
2022/07/20 13:08:06;;;;;;;;;;;31.20;34.00;;;;;;5042051;28;19917;-64
2022/07/20 13:10:31;;;;;;;;;;;31.20;33.90;;;;;;5042798;28;19923;-64
2022/07/20 13:12:56;;;;;;;;;;;31.20;33.70;;;;;;5049744;28;19978;-64
2022/07/20 13:15:22;;;;;;;;;;;31.30;33.70;;;;;;5037784;28;19921;-64
2022/07/20 13:17:47;;;;;;;;;;;31.30;33.60;;;;;;5045470;28;20348;-65
2022/07/20 13:20:13;;;;;;;;;;;31.30;33.90;;;;;;5044066;28;20016;-65
2022/07/20 13:22:38;;;;;;;;;;;31.20;34.00;;;;;;5043345;28;19916;-65
2022/07/20 13:25:04;;;;;;;;;;;31.20;33.90;;;;;;5048623;28;19944;-65
2022/07/20 13:27:29;;;;;;;;;;;31.20;33.90;;;;;;5048679;28;19913;-65
2022/07/20 13:29:55;;;;;;;;;;;31.40;33.70;;;;;;5041646;28;19920;-65
2022/07/20 13:32:21;;;;;;;;;;;31.40;33.50;;;;;;5049201;28;20389;-65
2022/07/20 13:34:46;;;;;;;;;;;31.50;33.20;;;;;;5045112;28;20288;-64
2022/07/20 13:37:12;;;;;;;;;;;31.60;32.80;;;;;;5048514;28;19955;-64
2022/07/20 13:39:37;;;;;;;;;;;31.60;32.90;;;;;;5048232;28;19924;-63
2022/07/20 13:42:03;;;;;;;;;;;31.50;32.70;;;;;;5031415;28;19925;-65
2022/07/20 13:44:28;;;;;;;;;;;31.50;32.70;;;;;;5048329;28;19923;-65
2022/07/20 13:46:54;;;;;;;;;;;31.60;32.90;;;;;;5047137;28;19917;-64
2022/07/20 13:49:19;;;;;;;;;;;31.50;33.10;;;;;;5049775;28;19912;-64
2022/07/20 13:51:45;;;;;;;;;;;31.40;33.30;;;;;;5047824;28;19920;-64
2022/07/20 13:54:10;;;;;;;;;;;31.40;33.40;;;;;;5044195;28;19920;-64
2022/07/20 13:56:36;;;;;;;;;;;31.40;33.40;;;;;;5049342;28;19909;-65
2022/07/20 13:59:01;;;;;;;;;;;31.40;33.40;;;;;;5050415;28;19913;-64
2022/07/20 14:01:27;;;;;;;;;;;31.50;33.40;;;;;;5050340;28;19916;-64
2022/07/20 14:03:52;;;;;;;;;;;31.50;33.20;;;;;;5050881;28;19916;-65
2022/07/20 14:06:18;;;;;;;;;;;31.50;33.30;;;;;;5039211;28;19955;-65
2022/07/20 14:08:43;;;;;;;;;;;31.50;33.20;;;;;;5050523;28;19920;-65
2022/07/20 14:11:09;;;;;;;;;;;31.40;33.30;;;;;;5048259;28;19928;-64
2022/07/20 14:13:35;;;;;;;;;;;31.40;33.30;;;;;;5049937;28;19963;-64
2022/07/20 14:16:00;;;;;;;;;;;31.40;33.50;;;;;;5051339;28;19944;-64